Time;durP1;ratioP1;P1;durP2;ratioP2;P2;SDS_P1;SDS_P2;PMS_P1;PMS_P2;Temp;Humidity;BMP_temperature;BMP_pressure;BME280_temperature;BME280_humidity;BME280_pressure;Samples;Min_cycle;Max_cycle;Signal;HPM_P1;HPM_P2
2023/08/03 00:00:59;;;;;;;14.02;6.00;;;22.40;60.80;;;;;;4951044;28;20066;-67
2023/08/03 00:03:26;;;;;;;19.67;6.35;;;22.20;61.60;;;;;;4945423;28;20082;-70
2023/08/03 00:05:54;;;;;;;17.05;6.15;;;22.40;61.10;;;;;;4949641;28;20129;-70
2023/08/03 00:08:21;;;;;;;15.07;6.43;;;22.60;59.70;;;;;;4950715;28;20031;-69
2023/08/03 00:10:48;;;;;;;19.45;6.25;;;22.10;61.00;;;;;;4934588;28;20074;-70
2023/08/03 00:13:16;;;;;;;18.02;6.57;;;22.20;60.70;;;;;;4947890;28;20055;-68
2023/08/03 00:15:43;;;;;;;17.10;6.10;;;22.50;60.70;;;;;;4948404;28;20034;-68
2023/08/03 00:18:10;;;;;;;14.38;6.15;;;22.20;60.90;;;;;;4944569;28;20024;-67
2023/08/03 00:20:38;;;;;;;12.20;5.45;;;22.40;59.90;;;;;;4955625;28;20551;-67
2023/08/03 00:23:05;;;;;;;11.05;5.20;;;23.00;60.00;;;;;;4944256;28;20488;-67
2023/08/03 00:25:33;;;;;;;11.82;5.28;;;23.00;58.00;;;;;;4948395;28;20121;-67
2023/08/03 00:28:00;;;;;;;12.35;5.65;;;22.70;59.50;;;;;;4945178;28;20024;-67
2023/08/03 00:30:27;;;;;;;11.02;5.25;;;22.80;59.00;;;;;;4951417;28;20362;-68
2023/08/03 00:32:55;;;;;;;12.20;5.00;;;22.80;59.20;;;;;;4944248;28;20299;-68
2023/08/03 00:35:22;;;;;;;11.88;5.28;;;22.80;60.50;;;;;;4946095;28;20038;-69
2023/08/03 00:37:51;;;;;;;14.38;4.50;;;23.30;58.00;;;;;;4943295;28;20023;-68
2023/08/03 00:40:19;;;;;;;11.07;4.47;;;23.40;57.70;;;;;;4942586;28;20034;-68
2023/08/03 00:42:47;;;;;;;13.75;3.17;;;23.20;58.20;;;;;;4958049;28;20050;-68
2023/08/03 00:45:14;;;;;;;10.48;3.10;;;22.70;58.70;;;;;;4948352;28;20070;-69
2023/08/03 00:47:41;;;;;;;12.77;3.05;;;23.40;58.10;;;;;;4950720;28;20023;-68
2023/08/03 00:50:09;;;;;;;15.93;3.30;;;23.20;58.20;;;;;;4948653;28;20077;-64
2023/08/03 00:52:38;;;;;;;11.10;3.28;;;22.80;58.20;;;;;;4934887;28;20031;-69
2023/08/03 00:55:06;;;;;;;8.73;3.28;;;23.00;59.10;;;;;;4947760;28;20031;-68
2023/08/03 00:57:33;;;;;;;7.47;2.70;;;23.30;57.30;;;;;;4948097;28;20089;-69
2023/08/03 01:00:01;;;;;;;12.88;3.10;;;23.20;58.20;;;;;;4950289;28;20469;-68
2023/08/03 01:02:28;;;;;;;7.82;2.95;;;22.60;58.60;;;;;;4952040;28;20035;-68
2023/08/03 01:04:55;;;;;;;10.02;3.17;;;22.70;58.90;;;;;;4940299;28;20043;-69
2023/08/03 01:07:23;;;;;;;13.00;2.92;;;23.10;57.10;;;;;;4947295;28;20161;-68
2023/08/03 01:09:51;;;;;;;11.30;3.22;;;22.70;57.40;;;;;;4945244;28;20019;-69
2023/08/03 01:12:18;;;;;;;13.48;3.45;;;23.10;57.00;;;;;;4952546;28;20031;-68
2023/08/03 01:14:46;;;;;;;13.40;3.03;;;23.10;57.90;;;;;;4951592;28;20039;-68
2023/08/03 01:17:14;;;;;;;11.15;3.20;;;23.50;55.20;;;;;;4948912;28;20481;-68
2023/08/03 01:19:41;;;;;;;11.38;3.10;;;23.60;55.70;;;;;;4950704;28;20027;-69
2023/08/03 01:22:12;;;;;;;11.18;3.10;;;23.40;56.40;;;;;;4952103;28;20523;-69
2023/08/03 01:24:40;;;;;;;9.98;3.28;;;23.70;55.60;;;;;;4947563;28;20062;-70
2023/08/03 01:27:08;;;;;;;9.55;3.92;;;23.60;55.90;;;;;;4952015;28;20031;-69
2023/08/03 01:29:35;;;;;;;11.25;3.83;;;24.30;54.60;;;;;;4947638;28;20032;-68
2023/08/03 01:32:02;;;;;;;20.92;3.78;;;23.70;54.30;;;;;;4950610;28;20090;-69
2023/08/03 01:34:30;;;;;;;12.55;3.70;;;23.40;54.80;;;;;;4948067;28;20042;-69
2023/08/03 01:36:57;;;;;;;10.02;3.42;;;22.90;55.90;;;;;;4947377;28;20066;-68
2023/08/03 01:39:26;;;;;;;10.18;3.55;;;22.70;56.70;;;;;;4946322;28;20034;-68
2023/08/03 01:41:53;;;;;;;17.42;3.50;;;23.10;55.80;;;;;;4951156;28;20038;-68
2023/08/03 01:44:25;;;;;;;9.63;2.90;;;23.40;55.00;;;;;;4964464;28;20058;-69
2023/08/03 01:46:54;;;;;;;11.13;3.03;;;23.70;54.60;;;;;;4950807;28;20149;-69
2023/08/03 01:49:23;;;;;;;11.02;3.35;;;24.00;54.20;;;;;;4947629;28;20402;-68
2023/08/03 01:51:51;;;;;;;14.10;3.50;;;23.90;52.50;;;;;;4950351;28;20027;-68
2023/08/03 01:54:18;;;;;;;7.88;2.53;;;23.70;53.70;;;;;;4943200;28;20500;-68
2023/08/03 01:56:45;;;;;;;7.88;2.95;;;23.70;53.60;;;;;;4950332;28;20049;-68
2023/08/03 01:59:13;;;;;;;6.63;2.85;;;23.80;53.40;;;;;;4946794;28;20075;-68
2023/08/03 02:01:40;;;;;;;9.55;2.67;;;24.10;52.70;;;;;;4940444;28;20077;-68
2023/08/03 02:04:08;;;;;;;10.25;2.63;;;23.80;52.50;;;;;;4945550;28;20045;-68
2023/08/03 02:06:36;;;;;;;8.57;2.35;;;23.80;52.80;;;;;;4947040;28;20023;-68
2023/08/03 02:09:04;;;;;;;11.02;2.53;;;23.60;53.00;;;;;;4943507;28;20078;-68
2023/08/03 02:11:33;;;;;;;7.95;2.35;;;23.70;51.60;;;;;;4953197;28;20429;-68
2023/08/03 02:14:00;;;;;;;6.53;1.70;;;23.70;51.10;;;;;;4948601;28;20106;-69
2023/08/03 02:16:28;;;;;;;7.32;1.98;;;23.40;52.20;;;;;;4947017;28;20110;-68
2023/08/03 02:18:55;;;;;;;9.40;2.08;;;23.40;52.20;;;;;;4951667;28;20035;-68
2023/08/03 02:21:22;;;;;;;8.35;2.17;;;23.40;52.30;;;;;;4939042;28;20060;-69
2023/08/03 02:23:50;;;;;;;7.45;2.53;;;24.00;51.40;;;;;;4950182;28;20105;-68
2023/08/03 02:26:18;;;;;;;5.53;1.90;;;24.60;50.80;;;;;;4949241;28;20440;-68
2023/08/03 02:28:45;;;;;;;7.78;2.28;;;24.90;49.80;;;;;;4943357;28;20058;-68
2023/08/03 02:31:12;;;;;;;9.45;2.17;;;24.80;49.20;;;;;;4952835;28;20027;-68
2023/08/03 02:33:40;;;;;;;8.82;2.13;;;24.90;50.70;;;;;;4947286;28;20046;-67
2023/08/03 02:36:10;;;;;;;5.20;1.70;;;25.10;48.50;;;;;;4947602;28;20079;-68
2023/08/03 02:38:37;;;;;;;10.25;2.53;;;24.80;48.40;;;;;;4943113;28;20035;-67
2023/08/03 02:41:04;;;;;;;8.07;2.35;;;24.40;49.50;;;;;;4945990;28;20031;-67
2023/08/03 02:43:32;;;;;;;9.55;1.90;;;24.60;50.30;;;;;;4936482;28;20519;-68
2023/08/03 02:45:59;;;;;;;8.18;2.53;;;24.50;48.80;;;;;;4948777;28;20042;-69
2023/08/03 02:48:26;;;;;;;3.53;1.27;;;24.50;49.40;;;;;;4950360;28;20042;-68
2023/08/03 02:50:54;;;;;;;5.55;2.00;;;24.10;49.20;;;;;;4943856;28;20109;-68
2023/08/03 02:53:21;;;;;;;8.20;1.90;;;23.90;49.30;;;;;;4949328;28;20027;-68
2023/08/03 02:55:48;;;;;;;6.28;2.10;;;24.30;48.90;;;;;;4949831;28;20027;-68
2023/08/03 02:58:16;;;;;;;7.32;2.13;;;24.40;49.00;;;;;;4943101;28;20047;-68
2023/08/03 03:00:43;;;;;;;7.25;2.30;;;24.90;48.70;;;;;;4940079;28;20496;-68
2023/08/03 03:03:11;;;;;;;5.90;1.92;;;25.30;47.50;;;;;;4944114;28;20503;-67
2023/08/03 03:05:39;;;;;;;5.22;1.75;;;25.60;47.40;;;;;;4945971;28;20035;-68
2023/08/03 03:08:07;;;;;;;12.32;2.58;;;25.20;47.10;;;;;;4943324;28;20059;-68
2023/08/03 03:10:34;;;;;;;12.93;2.30;;;24.80;48.30;;;;;;4949653;28;20066;-68
2023/08/03 03:13:01;;;;;;;7.53;2.40;;;25.10;48.00;;;;;;4944929;28;20039;-69
2023/08/03 03:15:29;;;;;;;9.60;2.47;;;25.20;47.50;;;;;;4948776;28;20124;-67
2023/08/03 03:17:56;;;;;;;8.30;2.13;;;25.50;46.50;;;;;;4943696;28;20031;-67
2023/08/03 03:20:23;;;;;;;11.57;2.40;;;25.50;46.90;;;;;;4947348;28;20027;-67
2023/08/03 03:22:50;;;;;;;6.88;2.33;;;25.50;46.50;;;;;;4950127;28;20505;-68
2023/08/03 03:25:18;;;;;;;7.57;2.53;;;25.50;46.70;;;;;;4945327;28;20066;-67
2023/08/03 03:27:45;;;;;;;10.45;1.98;;;25.10;46.10;;;;;;4943680;28;20545;-67
2023/08/03 03:30:12;;;;;;;6.50;1.80;;;24.90;46.70;;;;;;4948371;28;20054;-69
2023/08/03 03:32:40;;;;;;;6.95;1.83;;;24.80;47.50;;;;;;4943521;28;20385;-68
2023/08/03 03:35:07;;;;;;;7.15;2.22;;;24.70;47.30;;;;;;4953628;28;20126;-69
2023/08/03 03:37:35;;;;;;;9.57;2.20;;;24.60;47.90;;;;;;4937095;28;20027;-69
2023/08/03 03:40:02;;;;;;;8.40;2.35;;;24.50;48.40;;;;;;4939647;28;20030;-68
2023/08/03 03:42:30;;;;;;;6.57;1.90;;;24.30;48.70;;;;;;4949878;28;20504;-67
2023/08/03 03:44:57;;;;;;;11.20;2.00;;;24.10;48.80;;;;;;4947786;28;20078;-69
2023/08/03 03:47:24;;;;;;;5.75;1.90;;;24.00;50.10;;;;;;4948480;28;20035;-68
2023/08/03 03:49:52;;;;;;;11.00;1.92;;;24.00;49.80;;;;;;4946947;28;20444;-68
2023/08/03 03:52:19;;;;;;;7.40;1.65;;;24.00;49.80;;;;;;4950057;28;20126;-68
2023/08/03 03:54:46;;;;;;;6.30;1.77;;;23.90;50.10;;;;;;4950566;28;20039;-68
2023/08/03 03:57:13;;;;;;;5.32;1.83;;;23.70;50.10;;;;;;4949812;28;20489;-67
2023/08/03 03:59:41;;;;;;;13.48;2.22;;;23.70;50.90;;;;;;4948954;28;20070;-68
2023/08/03 04:02:08;;;;;;;7.00;2.17;;;23.40;51.20;;;;;;4951761;28;20574;-68
2023/08/03 04:04:35;;;;;;;8.35;1.95;;;23.20;52.20;;;;;;4947858;28;20559;-69
2023/08/03 04:07:03;;;;;;;6.63;1.90;;;23.30;51.70;;;;;;4951701;28;20053;-68
2023/08/03 04:09:30;;;;;;;8.38;2.13;;;23.30;51.20;;;;;;4948705;28;20106;-68
2023/08/03 04:11:57;;;;;;;9.70;1.90;;;23.40;50.30;;;;;;4946244;28;20027;-68
2023/08/03 04:14:25;;;;;;;9.18;2.22;;;23.40;50.50;;;;;;4945629;28;20466;-69
2023/08/03 04:16:52;;;;;;;5.88;1.70;;;23.30;51.00;;;;;;4947709;28;20053;-67
2023/08/03 04:19:20;;;;;;;8.02;2.13;;;23.30;51.50;;;;;;4943706;28;20059;-68
2023/08/03 04:21:47;;;;;;;8.57;2.45;;;23.00;51.70;;;;;;4949198;28;20389;-68
2023/08/03 04:24:14;;;;;;;6.55;2.05;;;23.00;51.40;;;;;;4949311;28;20031;-68
2023/08/03 04:26:42;;;;;;;9.55;2.20;;;22.90;51.10;;;;;;4950276;28;20474;-68
2023/08/03 04:29:09;;;;;;;10.02;1.95;;;22.80;51.70;;;;;;4948752;28;20019;-69
2023/08/03 04:31:36;;;;;;;7.32;1.60;;;22.60;51.70;;;;;;4947327;28;20050;-68
2023/08/03 04:34:03;;;;;;;9.27;2.60;;;22.50;52.10;;;;;;4944381;28;20019;-69
2023/08/03 04:36:31;;;;;;;5.78;1.83;;;22.50;52.50;;;;;;4948908;28;20171;-68
2023/08/03 04:38:58;;;;;;;5.03;1.90;;;22.70;52.60;;;;;;4949546;28;20019;-68
2023/08/03 04:41:25;;;;;;;9.60;2.20;;;22.70;52.00;;;;;;4945923;28;20508;-68
2023/08/03 04:43:53;;;;;;;7.00;1.83;;;22.40;52.40;;;;;;4942889;28;20023;-68
2023/08/03 04:46:29;;;;;;;7.22;2.17;;;22.40;52.20;;;;;;4951044;28;20571;-69
2023/08/03 04:48:58;;;;;;;7.88;2.17;;;22.20;53.00;;;;;;4945231;28;20034;-69
2023/08/03 04:51:25;;;;;;;4.72;2.10;;;22.30;52.00;;;;;;4951640;28;20039;-68
2023/08/03 04:53:56;;;;;;;5.75;1.67;;;22.30;52.20;;;;;;4952837;28;20039;-71
2023/08/03 04:56:23;;;;;;;6.82;1.85;;;22.30;52.20;;;;;;4949998;28;20039;-67
2023/08/03 04:58:50;;;;;;;6.07;1.80;;;22.20;53.00;;;;;;4951266;28;20066;-67
2023/08/03 05:01:18;;;;;;;10.07;2.03;;;22.20;52.90;;;;;;4947195;28;20437;-68
2023/08/03 05:03:45;;;;;;;5.40;1.90;;;22.30;52.80;;;;;;4947628;28;20031;-68
2023/08/03 05:06:12;;;;;;;4.28;1.50;;;22.20;53.10;;;;;;4948785;28;21270;-68
2023/08/03 05:08:40;;;;;;;8.13;2.08;;;22.20;52.40;;;;;;4952741;28;20035;-68
2023/08/03 05:11:07;;;;;;;7.57;2.10;;;22.20;52.90;;;;;;4948247;28;20034;-69
2023/08/03 05:13:34;;;;;;;7.68;2.00;;;22.20;53.10;;;;;;4946054;28;20027;-68
2023/08/03 05:16:02;;;;;;;14.82;2.00;;;22.20;52.70;;;;;;4965920;28;20043;-69
2023/08/03 05:18:29;;;;;;;8.57;2.38;;;22.30;52.10;;;;;;4949153;28;20027;-69
2023/08/03 05:20:56;;;;;;;5.68;2.20;;;22.20;52.20;;;;;;4952744;28;20093;-68
2023/08/03 05:23:24;;;;;;;7.65;2.00;;;22.20;52.60;;;;;;4946553;28;20527;-68
2023/08/03 05:25:55;;;;;;;5.20;1.83;;;22.20;52.10;;;;;;4957706;28;20050;-68
2023/08/03 05:28:24;;;;;;;5.40;1.73;;;22.20;52.30;;;;;;4940335;28;20077;-69
2023/08/03 05:30:51;;;;;;;8.60;1.98;;;22.20;51.10;;;;;;4947245;28;20067;-68
2023/08/03 05:33:18;;;;;;;4.72;1.35;;;22.30;51.60;;;;;;4944586;28;20027;-69
2023/08/03 05:35:48;;;;;;;6.18;1.70;;;22.20;52.00;;;;;;4947286;28;20070;-68
2023/08/03 05:38:16;;;;;;;11.45;2.08;;;22.20;51.80;;;;;;4935274;28;20497;-68
2023/08/03 05:40:43;;;;;;;4.70;1.88;;;22.30;52.20;;;;;;4952854;28;20027;-68
2023/08/03 05:43:13;;;;;;;4.57;1.70;;;22.20;52.50;;;;;;4947424;28;20069;-68
2023/08/03 05:45:47;;;;;;;6.18;1.90;;;22.20;52.40;;;;;;4968928;28;20057;-67
2023/08/03 05:48:18;;;;;;;3.97;1.80;;;22.20;52.00;;;;;;4947966;28;20038;-68
2023/08/03 05:50:48;;;;;;;6.53;2.45;;;22.30;51.80;;;;;;4947286;28;20031;-65
2023/08/03 05:53:16;;;;;;;8.05;2.25;;;22.20;51.70;;;;;;4950983;28;20023;-68
2023/08/03 05:55:45;;;;;;;6.30;2.00;;;22.20;52.10;;;;;;4948253;28;20366;-67
2023/08/03 05:58:15;;;;;;;10.57;2.35;;;22.30;52.00;;;;;;4947689;28;20504;-67
2023/08/03 06:00:46;;;;;;;5.97;1.92;;;22.40;52.30;;;;;;4947407;28;20122;-67
2023/08/03 06:03:15;;;;;;;8.13;2.08;;;22.50;52.40;;;;;;4949529;28;20035;-67
2023/08/03 06:05:50;;;;;;;7.70;2.25;;;22.50;52.20;;;;;;4950190;28;20224;-68
2023/08/03 06:08:26;;;;;;;4.05;1.80;;;22.60;52.60;;;;;;4947964;28;20596;-68
2023/08/03 06:10:58;;;;;;;9.57;1.80;;;22.70;52.20;;;;;;4949960;28;20027;-67
2023/08/03 06:13:34;;;;;;;7.40;1.80;;;22.70;52.40;;;;;;4946433;28;20417;-67
2023/08/03 06:16:10;;;;;;;8.37;2.57;;;22.80;52.50;;;;;;4946322;28;20031;-69
2023/08/03 06:19:00;;;;;;;6.47;1.65;;;22.70;52.50;;;;;;4960999;28;20449;-69
2023/08/03 06:21:29;;;;;;;5.30;1.73;;;22.70;52.00;;;;;;4930442;28;20031;-68
2023/08/03 06:23:58;;;;;;;5.22;1.80;;;22.70;52.60;;;;;;4962873;28;20186;-68
2023/08/03 06:26:26;;;;;;;4.57;1.33;;;22.60;52.20;;;;;;4941640;28;20101;-68
2023/08/03 06:28:55;;;;;;;4.63;1.88;;;22.60;52.30;;;;;;4936679;28;20184;-68
2023/08/03 06:31:35;;;;;;;6.93;1.90;;;22.50;52.40;;;;;;4948324;28;20035;-68
2023/08/03 06:34:03;;;;;;;12.40;2.03;;;22.40;52.90;;;;;;4940130;28;20101;-67
2023/08/03 06:36:30;;;;;;;7.95;2.45;;;22.40;52.90;;;;;;4951426;28;20027;-68
2023/08/03 06:38:58;;;;;;;5.97;1.80;;;22.40;53.10;;;;;;4948014;28;20122;-68
2023/08/03 06:41:27;;;;;;;6.60;1.77;;;22.20;53.60;;;;;;4949390;28;20075;-67
2023/08/03 06:43:55;;;;;;;6.38;2.00;;;22.20;53.90;;;;;;4943304;28;20114;-69
2023/08/03 06:46:25;;;;;;;6.32;1.98;;;22.00;54.00;;;;;;4949932;28;20054;-68
2023/08/03 06:48:53;;;;;;;12.23;2.10;;;22.00;54.50;;;;;;4948419;28;20034;-68
2023/08/03 06:51:21;;;;;;;8.57;2.17;;;22.00;54.50;;;;;;4945445;28;20736;-68
2023/08/03 06:53:49;;;;;;;8.73;2.08;;;21.80;55.00;;;;;;4945851;28;20039;-68
2023/08/03 06:56:17;;;;;;;7.38;1.80;;;21.60;55.30;;;;;;4948360;28;20039;-68
2023/08/03 06:58:45;;;;;;;6.68;1.80;;;21.60;56.00;;;;;;4944997;28;20290;-69
2023/08/03 07:01:12;;;;;;;4.70;1.77;;;21.40;56.20;;;;;;4950682;28;20027;-69
2023/08/03 07:03:39;;;;;;;6.63;1.85;;;21.20;56.70;;;;;;4944312;28;20078;-69
2023/08/03 07:06:07;;;;;;;9.43;2.08;;;21.10;56.90;;;;;;4946962;28;20138;-68
2023/08/03 07:08:34;;;;;;;7.43;1.92;;;21.00;57.10;;;;;;4948708;28;20090;-69
2023/08/03 07:11:01;;;;;;;7.97;1.85;;;21.00;57.30;;;;;;4948913;28;20505;-70
2023/08/03 07:13:29;;;;;;;6.45;2.08;;;20.80;57.90;;;;;;4943879;28;20034;-69
2023/08/03 07:15:56;;;;;;;5.20;1.98;;;20.50;58.60;;;;;;4950407;28;20027;-69
2023/08/03 07:18:23;;;;;;;4.80;2.47;;;20.30;59.70;;;;;;4937752;28;20552;-69
2023/08/03 07:20:51;;;;;;;6.28;2.95;;;20.30;59.50;;;;;;4948974;28;20042;-68
2023/08/03 07:23:18;;;;;;;6.03;1.92;;;20.40;59.40;;;;;;4946471;28;20030;-69
2023/08/03 07:25:45;;;;;;;7.15;2.40;;;20.40;59.40;;;;;;4945488;28;20105;-70
2023/08/03 07:28:13;;;;;;;8.63;2.13;;;20.20;60.00;;;;;;4943647;28;20078;-69
2023/08/03 07:30:40;;;;;;;5.88;2.00;;;20.20;60.20;;;;;;4944761;28;20439;-69
2023/08/03 07:33:07;;;;;;;6.22;2.45;;;20.10;60.40;;;;;;4951752;28;20031;-69
2023/08/03 07:35:38;;;;;;;6.88;2.40;;;20.10;60.60;;;;;;4951670;28;20400;-70
2023/08/03 07:38:06;;;;;;;12.32;2.78;;;20.00;61.00;;;;;;4945167;28;20035;-69
2023/08/03 07:40:33;;;;;;;5.68;2.30;;;19.90;61.50;;;;;;4950329;28;20369;-69
2023/08/03 07:43:01;;;;;;;9.25;2.67;;;19.80;62.20;;;;;;4950505;28;20150;-70
2023/08/03 07:45:28;;;;;;;11.50;3.17;;;19.60;62.70;;;;;;4949955;28;20437;-69
2023/08/03 07:47:55;;;;;;;6.43;3.08;;;19.50;63.20;;;;;;4948211;28;20038;-70
2023/08/03 07:50:23;;;;;;;9.77;3.55;;;19.40;64.20;;;;;;4949612;28;20039;-69
2023/08/03 07:52:50;;;;;;;10.05;2.85;;;19.20;64.80;;;;;;4955022;28;20381;-70
2023/08/03 07:55:18;;;;;;;15.02;3.70;;;19.00;65.50;;;;;;4967782;28;20032;-68
2023/08/03 07:57:45;;;;;;;11.95;4.25;;;18.90;66.30;;;;;;4951061;28;20059;-69
2023/08/03 08:00:13;;;;;;;11.90;4.13;;;18.80;66.90;;;;;;4948224;28;20027;-69
2023/08/03 08:02:40;;;;;;;11.05;3.95;;;18.80;66.70;;;;;;4949260;28;20035;-68
2023/08/03 08:05:08;;;;;;;13.07;3.92;;;18.70;67.10;;;;;;4953082;28;20043;-69
2023/08/03 08:07:35;;;;;;;13.88;5.05;;;18.60;67.70;;;;;;4950283;28;20022;-68
2023/08/03 08:10:02;;;;;;;11.50;3.97;;;18.50;68.10;;;;;;4950609;28;20400;-69
2023/08/03 08:12:30;;;;;;;12.88;3.58;;;18.30;69.30;;;;;;4931931;28;20023;-69
2023/08/03 08:14:57;;;;;;;17.10;3.55;;;18.20;70.00;;;;;;4945452;28;20033;-70
2023/08/03 08:17:25;;;;;;;26.85;4.40;;;18.10;70.40;;;;;;4950496;28;20061;-69
2023/08/03 08:19:52;;;;;;;23.95;4.20;;;18.30;69.80;;;;;;4951130;28;20353;-69
2023/08/03 08:22:23;;;;;;;16.60;3.58;;;18.40;70.00;;;;;;4949312;28;20039;-68
2023/08/03 08:24:50;;;;;;;19.02;3.78;;;18.30;70.80;;;;;;4956888;28;20035;-69
2023/08/03 08:27:17;;;;;;;17.27;4.07;;;18.10;71.40;;;;;;4954075;28;20042;-70
2023/08/03 08:29:48;;;;;;;20.42;3.92;;;18.00;72.20;;;;;;4947880;28;20102;-70
2023/08/03 08:32:16;;;;;;;25.33;5.88;;;17.80;72.70;;;;;;4947746;28;20442;-69
2023/08/03 08:34:43;;;;;;;31.13;8.00;;;17.60;73.30;;;;;;4951948;28;20504;-69
2023/08/03 08:37:10;;;;;;;36.40;14.77;;;17.60;74.10;;;;;;4951252;28;20038;-69
2023/08/03 08:39:37;;;;;;;33.30;12.85;;;17.40;74.10;;;;;;4948100;28;20386;-69
2023/08/03 08:42:15;;;;;;;42.08;13.60;;;17.30;74.80;;;;;;4954587;28;20105;-70
2023/08/03 08:44:42;;;;;;;31.10;14.07;;;17.20;75.40;;;;;;4948766;28;20048;-69
2023/08/03 08:47:09;;;;;;;44.53;15.30;;;17.10;75.80;;;;;;4953067;28;20079;-69
2023/08/03 08:49:37;;;;;;;28.00;9.38;;;17.10;76.30;;;;;;4949959;28;20385;-68
2023/08/03 08:52:08;;;;;;;30.40;8.70;;;17.00;76.80;;;;;;4947920;28;20023;-69
2023/08/03 08:54:37;;;;;;;20.90;9.07;;;16.90;77.30;;;;;;4958749;28;20397;-69
2023/08/03 08:57:04;;;;;;;27.48;8.63;;;16.90;77.60;;;;;;4948488;28;20047;-69
2023/08/03 08:59:32;;;;;;;23.20;8.63;;;16.80;77.90;;;;;;4949723;28;20035;-69
2023/08/03 09:02:01;;;;;;;32.30;7.80;;;16.70;78.70;;;;;;4952301;28;20128;-69
2023/08/03 09:04:33;;;;;;;22.75;6.90;;;16.60;79.00;;;;;;4952161;28;20027;-69
2023/08/03 09:07:01;;;;;;;28.55;6.78;;;16.60;79.40;;;;;;4951050;28;20031;-69
2023/08/03 09:09:38;;;;;;;22.75;6.82;;;16.50;80.00;;;;;;4951443;28;20035;-68
2023/08/03 09:12:06;;;;;;;33.03;6.95;;;16.30;80.70;;;;;;4954363;28;20069;-69
2023/08/03 09:14:52;;;;;;;18.08;6.80;;;16.20;81.30;;;;;;4948987;28;20034;-70
2023/08/03 09:17:22;;;;;;;16.15;6.60;;;16.20;82.30;;;;;;4951160;28;20090;-70
2023/08/03 09:19:50;;;;;;;30.20;7.53;;;16.20;82.50;;;;;;4945368;28;20027;-69
2023/08/03 09:22:19;;;;;;;26.00;8.00;;;16.10;83.40;;;;;;4948780;28;20033;-69
2023/08/03 09:24:58;;;;;;;29.05;7.53;;;16.20;84.50;;;;;;4946491;28;20042;-69
2023/08/03 09:27:26;;;;;;;34.55;8.43;;;16.10;84.90;;;;;;4951826;28;20145;-68
2023/08/03 09:30:00;;;;;;;23.35;7.35;;;16.00;86.10;;;;;;4963445;28;20039;-70
2023/08/03 09:32:36;;;;;;;41.38;8.00;;;16.10;85.20;;;;;;4950644;28;20023;-70
2023/08/03 09:35:15;;;;;;;35.53;7.80;;;16.00;86.30;;;;;;4948696;28;20050;-69
2023/08/03 09:37:43;;;;;;;32.95;8.43;;;15.90;86.30;;;;;;4950983;28;20062;-67
2023/08/03 09:40:11;;;;;;;31.27;8.57;;;15.80;86.60;;;;;;4952565;28;20457;-69
2023/08/03 09:42:39;;;;;;;25.58;7.55;;;15.60;87.60;;;;;;4953419;28;20035;-71
2023/08/03 09:45:09;;;;;;;29.83;7.80;;;15.60;88.10;;;;;;4950189;28;20507;-70
2023/08/03 09:47:39;;;;;;;30.55;8.90;;;15.60;88.00;;;;;;4952364;28;20038;-68
2023/08/03 09:50:08;;;;;;;35.05;8.88;;;15.50;88.40;;;;;;4953034;28;20039;-70
2023/08/03 09:52:49;;;;;;;27.05;8.32;;;15.40;89.60;;;;;;4957920;28;20026;-69
2023/08/03 09:55:28;;;;;;;30.50;8.68;;;15.30;89.80;;;;;;4951300;28;20062;-70
2023/08/03 09:58:06;;;;;;;27.77;8.98;;;15.30;89.90;;;;;;4958063;28;20484;-69
2023/08/03 10:00:35;;;;;;;33.90;10.50;;;15.20;90.30;;;;;;4933872;28;20382;-70
2023/08/03 10:03:12;;;;;;;28.45;9.25;;;15.10;90.30;;;;;;4941924;28;20392;-69
2023/08/03 10:06:11;;;;;;;26.10;10.55;;;15.10;90.30;;;;;;4946596;28;20043;-69
2023/08/03 10:08:40;;;;;;;;;;;15.00;91.00;;;;;;4947921;28;20074;-69
2023/08/03 10:11:12;;;;;;;29.33;12.25;;;15.00;91.30;;;;;;4946575;28;20016;-69
2023/08/03 10:13:46;;;;;;;26.02;12.15;;;14.90;91.40;;;;;;4937835;28;20031;-69
2023/08/03 10:16:17;;;;;;;24.92;11.40;;;15.00;91.60;;;;;;4946559;28;20029;-69
2023/08/03 10:18:46;;;;;;;27.23;12.90;;;14.90;91.40;;;;;;4945745;28;20114;-69
2023/08/03 10:21:13;;;;;;;25.23;12.20;;;14.80;91.80;;;;;;4946882;28;20039;-69
2023/08/03 10:24:00;;;;;;;22.60;11.57;;;14.90;91.90;;;;;;4944802;28;20941;-68
2023/08/03 10:26:27;;;;;;;27.70;11.65;;;14.80;92.00;;;;;;4949973;28;20118;-69
2023/08/03 10:28:56;;;;;;;21.88;11.90;;;14.70;91.70;;;;;;4945218;28;20029;-69
2023/08/03 10:31:24;;;;;;;22.45;12.02;;;14.60;91.80;;;;;;4947392;28;20019;-69
2023/08/03 10:33:55;;;;;;;23.92;12.45;;;14.50;91.80;;;;;;4950022;28;20039;-69
2023/08/03 10:36:41;;;;;;;31.02;12.82;;;14.40;92.00;;;;;;4947017;28;20473;-69
2023/08/03 10:39:15;;;;;;;23.98;13.05;;;14.30;92.70;;;;;;4940021;28;20067;-69
2023/08/03 10:41:45;;;;;;;27.65;13.93;;;14.30;93.00;;;;;;4940442;28;20054;-69
2023/08/03 10:44:13;;;;;;;32.30;13.40;;;14.40;92.90;;;;;;4949396;28;20032;-69
2023/08/03 10:46:40;;;;;;;30.23;12.05;;;14.40;92.70;;;;;;4950783;28;20073;-70
2023/08/03 10:49:43;;;;;;;23.00;10.88;;;14.30;92.60;;;;;;4946126;28;20038;-69
2023/08/03 10:52:19;;;;;;;27.25;11.38;;;14.30;92.50;;;;;;4929076;28;20101;-69
2023/08/03 10:54:47;;;;;;;24.33;12.52;;;14.20;92.40;;;;;;4947457;28;20126;-69
2023/08/03 10:57:30;;;;;;;25.30;15.73;;;14.10;92.40;;;;;;4962073;28;20051;-70
2023/08/03 11:00:03;;;;;;;25.98;15.43;;;13.90;92.60;;;;;;4949058;28;20114;-69
2023/08/03 11:02:43;;;;;;;27.02;14.88;;;13.80;92.70;;;;;;4951023;28;20453;-69
2023/08/03 11:05:14;;;;;;;27.83;14.93;;;13.70;93.00;;;;;;4940104;28;20481;-68
2023/08/03 11:07:43;;;;;;;34.33;14.85;;;13.70;93.10;;;;;;4951364;28;20493;-69
2023/08/03 11:10:13;;;;;;;33.28;14.05;;;13.60;93.20;;;;;;4947593;28;20031;-69
2023/08/03 11:12:41;;;;;;;29.83;13.93;;;13.60;93.40;;;;;;4945896;28;20023;-69
2023/08/03 11:15:09;;;;;;;36.05;13.93;;;13.50;93.60;;;;;;4947042;28;20039;-69
2023/08/03 11:17:38;;;;;;;32.80;15.02;;;13.60;93.70;;;;;;4946568;28;20016;-70
2023/08/03 11:20:12;;;;;;;33.78;13.63;;;13.50;94.20;;;;;;4950233;28;20024;-69
2023/08/03 11:22:39;;;;;;;47.35;14.75;;;13.50;93.70;;;;;;4958743;28;20031;-69
2023/08/03 11:25:07;;;;;;;41.95;15.05;;;13.40;93.80;;;;;;4958652;28;20039;-70
2023/08/03 11:27:35;;;;;;;36.75;15.90;;;13.40;94.00;;;;;;4946569;28;20035;-68
2023/08/03 11:30:05;;;;;;;41.65;13.93;;;13.40;93.70;;;;;;4946761;28;20106;-69
2023/08/03 11:32:33;;;;;;;36.50;14.38;;;13.30;93.60;;;;;;4951306;28;20075;-69
2023/08/03 11:35:10;;;;;;;38.10;16.67;;;13.30;94.00;;;;;;4949188;28;20136;-69
2023/08/03 11:37:39;;;;;;;47.35;15.82;;;13.20;94.60;;;;;;4954756;28;20157;-69
2023/08/03 11:40:11;;;;;;;45.95;15.82;;;13.20;94.70;;;;;;4953331;28;20129;-69
2023/08/03 11:42:43;;;;;;;46.28;16.40;;;13.20;94.60;;;;;;4943639;28;20397;-68
2023/08/03 11:45:12;;;;;;;36.78;18.52;;;13.10;94.70;;;;;;4954768;28;20069;-68
2023/08/03 11:47:43;;;;;;;45.92;16.33;;;13.00;94.80;;;;;;4951234;28;20033;-68
2023/08/03 11:50:11;;;;;;;43.15;17.65;;;12.90;94.70;;;;;;4959059;28;20031;-68
2023/08/03 11:52:38;;;;;;;43.40;20.60;;;12.90;94.50;;;;;;4953920;28;20030;-69
2023/08/03 11:55:06;;;;;;;40.95;17.88;;;12.80;94.80;;;;;;4950121;28;20038;-68
2023/08/03 12:00:21;;;;;;;40.92;15.02;;;12.80;94.80;;;;;;4946829;28;20042;-68
2023/08/03 12:02:48;;;;;;;41.63;16.13;;;12.70;95.00;;;;;;4944472;28;20027;-69
2023/08/03 12:05:17;;;;;;;46.92;17.15;;;12.70;95.30;;;;;;4949450;28;20047;-69
2023/08/03 12:07:52;;;;;;;46.90;16.63;;;12.70;95.40;;;;;;4947524;28;20035;-69
2023/08/03 12:10:20;;;;;;;44.15;17.45;;;12.70;95.10;;;;;;4948996;28;20887;-70
2023/08/03 12:12:47;;;;;;;38.28;15.98;;;12.60;95.50;;;;;;4948268;28;20461;-68
2023/08/03 12:15:14;;;;;;;38.90;16.35;;;12.60;95.30;;;;;;4946307;28;20039;-69
2023/08/03 12:17:42;;;;;;;31.70;15.48;;;12.60;95.20;;;;;;4943801;28;20461;-69
2023/08/03 12:20:10;;;;;;;37.20;15.80;;;12.60;95.50;;;;;;4945417;28;20564;-69
2023/08/03 12:22:37;;;;;;;36.22;16.15;;;12.60;95.60;;;;;;4948033;28;20035;-68
2023/08/03 12:25:05;;;;;;;36.80;15.80;;;12.60;95.40;;;;;;4950820;28;20039;-68
2023/08/03 12:27:32;;;;;;;40.92;16.15;;;12.60;95.30;;;;;;4956312;28;20540;-69
2023/08/03 12:29:59;;;;;;;37.13;16.33;;;12.60;95.70;;;;;;4945740;28;20031;-69
2023/08/03 12:32:27;;;;;;;37.50;16.42;;;12.50;95.50;;;;;;4953468;28;20028;-69
2023/08/03 12:34:54;;;;;;;39.03;16.65;;;12.50;95.30;;;;;;4949745;28;20377;-69
2023/08/03 12:37:22;;;;;;;31.50;15.50;;;12.40;95.40;;;;;;4954319;28;20062;-69
2023/08/03 12:39:49;;;;;;;33.38;16.30;;;12.30;95.70;;;;;;4950348;28;20029;-69
2023/08/03 12:42:17;;;;;;;31.70;15.77;;;12.30;95.80;;;;;;4954902;28;20031;-69
2023/08/03 12:44:44;;;;;;;35.40;16.45;;;12.30;95.70;;;;;;4954425;28;20445;-69
2023/08/03 12:47:11;;;;;;;41.85;15.98;;;12.20;95.60;;;;;;4948358;28;20023;-69
2023/08/03 12:49:39;;;;;;;40.25;17.05;;;12.10;95.70;;;;;;4950697;28;20031;-69